createdAt,value
2018-08-09T00:01:10.536Z,7.17
2018-08-09T00:03:39.093Z,7.70
2018-08-09T00:06:07.612Z,7.07
2018-08-09T00:08:36.020Z,7.90
2018-08-09T00:11:04.879Z,7.40
2018-08-09T00:13:33.275Z,8.23
2018-08-09T00:16:01.727Z,8.33
2018-08-09T00:18:30.348Z,7.47
2018-08-09T00:20:58.844Z,8.87
2018-08-09T00:23:27.249Z,8.90
2018-08-09T00:25:55.686Z,7.50
2018-08-09T00:28:24.087Z,8.03
2018-08-09T00:30:52.477Z,8.10
2018-08-09T00:33:20.898Z,8.20
2018-08-09T00:35:49.278Z,7.23
2018-08-09T00:38:17.691Z,7.60
2018-08-09T00:40:46.283Z,8.00
2018-08-09T00:43:14.695Z,8.20
2018-08-09T00:45:43.087Z,8.40
2018-08-09T00:48:11.600Z,8.33
2018-08-09T00:50:40.079Z,8.90
2018-08-09T00:53:08.626Z,7.50
2018-08-09T00:58:15.378Z,8.23
2018-08-09T01:00:43.899Z,8.40
2018-08-09T01:03:12.295Z,8.77
2018-08-09T01:05:40.778Z,8.83
2018-08-09T01:08:09.446Z,8.97
2018-08-09T01:10:37.855Z,6.50
2018-08-09T01:13:06.706Z,8.73
2018-08-09T01:15:35.249Z,8.40
2018-08-09T01:18:03.711Z,7.47
2018-08-09T01:20:32.111Z,7.50
2018-08-09T01:23:00.723Z,7.27
2018-08-09T01:25:29.314Z,7.87
2018-08-09T01:27:57.719Z,7.20
2018-08-09T01:30:26.534Z,9.13
2018-08-09T01:32:55.024Z,8.73
2018-08-09T01:35:23.463Z,7.90
2018-08-09T01:37:52.153Z,8.70
2018-08-09T01:40:20.540Z,8.63
2018-08-09T01:43:00.343Z,7.87
2018-08-09T01:45:28.800Z,8.23
2018-08-09T01:47:57.251Z,8.53
2018-08-09T01:50:25.836Z,8.13
2018-08-09T01:52:54.247Z,8.53
2018-08-09T01:55:22.639Z,8.90
2018-08-09T01:57:51.243Z,8.77
2018-08-09T02:00:19.667Z,7.90
2018-08-09T02:02:48.167Z,7.93
2018-08-09T02:05:16.891Z,7.77
2018-08-09T02:07:45.350Z,8.00
2018-08-09T02:10:13.759Z,8.60
2018-08-09T02:12:42.253Z,9.37
2018-08-09T02:15:10.639Z,9.50
2018-08-09T02:17:39.098Z,8.93
2018-08-09T02:20:07.755Z,8.37
2018-08-09T02:22:36.171Z,8.97
2018-08-09T02:25:05.075Z,9.80
2018-08-09T02:27:33.801Z,8.97
2018-08-09T02:30:02.176Z,9.87
2018-08-09T02:32:30.551Z,9.90
2018-08-09T02:34:59.098Z,9.27
2018-08-09T02:37:27.484Z,9.60
2018-08-09T02:39:56.067Z,9.37
2018-08-09T02:42:24.591Z,9.03
2018-08-09T02:44:52.983Z,9.50
2018-08-09T02:47:21.378Z,10.37
2018-08-09T02:49:49.875Z,8.30
2018-08-09T02:52:18.259Z,8.53
2018-08-09T02:54:46.714Z,9.53
2018-08-09T02:57:15.375Z,8.90
2018-08-09T02:59:43.795Z,9.60
2018-08-09T03:02:12.219Z,8.27
2018-08-09T03:04:40.616Z,8.43
2018-08-09T03:07:09.423Z,9.70
2018-08-09T03:09:37.912Z,9.33
2018-08-09T03:12:06.543Z,10.40
2018-08-09T03:14:34.954Z,9.00
2018-08-09T03:17:03.403Z,11.33
2018-08-09T03:19:31.855Z,9.20
2018-08-09T03:22:00.336Z,8.77
2018-08-09T03:24:28.960Z,10.70
2018-08-09T03:26:57.607Z,10.00
2018-08-09T03:29:26.069Z,10.50
2018-08-09T03:31:54.539Z,9.60
2018-08-09T03:34:23.052Z,10.23
2018-08-09T03:36:51.522Z,9.70
2018-08-09T03:39:19.907Z,9.77
2018-08-09T03:41:48.443Z,11.37
2018-08-09T03:44:16.931Z,10.57
2018-08-09T03:46:45.411Z,10.07
2018-08-09T03:49:14.163Z,9.33
2018-08-09T03:51:42.571Z,12.07
2018-08-09T03:54:11.079Z,11.63
2018-08-09T03:56:39.754Z,10.17
2018-08-09T03:59:08.359Z,11.73
2018-08-09T04:01:36.855Z,9.47
2018-08-09T04:04:05.391Z,10.87
2018-08-09T04:06:33.860Z,10.27
2018-08-09T04:09:02.323Z,10.23
2018-08-09T04:11:31.016Z,9.90
2018-08-09T04:13:59.547Z,9.60
2018-08-09T04:16:27.931Z,9.73
2018-08-09T04:18:56.435Z,10.00
2018-08-09T04:21:24.814Z,9.80
2018-08-09T04:23:53.323Z,12.30
2018-08-09T04:26:22.031Z,11.00
2018-08-09T04:28:50.524Z,10.30
2018-08-09T04:31:19.117Z,9.90
2018-08-09T04:33:48.091Z,10.77
2018-08-09T04:36:16.643Z,10.27
2018-08-09T04:38:45.115Z,10.63
2018-08-09T04:41:13.631Z,9.87
2018-08-09T04:43:42.080Z,10.10
2018-08-09T04:46:10.607Z,9.80
2018-08-09T04:48:39.183Z,10.17
2018-08-09T04:51:07.655Z,10.10
2018-08-09T04:53:36.060Z,11.07
2018-08-09T04:56:04.872Z,10.37
2018-08-09T04:58:33.339Z,9.67
2018-08-09T05:01:01.900Z,11.23
2018-08-09T05:03:31.039Z,10.03
2018-08-09T05:05:59.438Z,9.87
2018-08-09T05:08:27.875Z,11.23
2018-08-09T05:10:56.603Z,10.50
2018-08-09T05:13:25.155Z,11.57
2018-08-09T05:15:53.626Z,10.80
2018-08-09T05:18:22.511Z,10.17
2018-08-09T05:20:51.004Z,10.67
2018-08-09T05:23:19.460Z,11.03
2018-08-09T05:25:48.187Z,10.60
2018-08-09T05:28:16.567Z,11.17
2018-08-09T05:30:45.007Z,11.07
2018-08-09T05:33:13.516Z,10.70
2018-08-09T05:35:41.975Z,10.17
2018-08-09T05:38:10.475Z,10.83
2018-08-09T05:40:39.358Z,10.60
2018-08-09T05:43:07.771Z,10.20
2018-08-09T05:45:36.439Z,11.40
2018-08-09T05:48:05.251Z,11.57
2018-08-09T05:50:33.764Z,11.97
2018-08-09T05:53:02.334Z,10.60
2018-08-09T05:55:30.904Z,11.13
2018-08-09T05:57:59.486Z,11.80
2018-08-09T06:00:28.020Z,10.83
2018-08-09T06:02:56.617Z,11.53
2018-08-09T06:05:25.032Z,11.10
2018-08-09T06:07:53.539Z,12.43
2018-08-09T06:10:22.195Z,11.53
2018-08-09T06:12:50.626Z,11.57
2018-08-09T06:15:19.126Z,11.53
2018-08-09T06:17:47.665Z,10.93
2018-08-09T06:20:16.058Z,10.60
2018-08-09T06:22:44.671Z,10.90
2018-08-09T06:25:13.122Z,10.40
2018-08-09T06:27:41.611Z,11.43
2018-08-09T06:30:11.155Z,9.80
2018-08-09T06:32:40.426Z,9.90
2018-08-09T06:35:10.492Z,10.37
2018-08-09T06:37:39.187Z,10.43
2018-08-09T06:40:11.211Z,11.57
2018-08-09T06:42:40.155Z,11.77
2018-08-09T06:45:08.654Z,10.53
2018-08-09T06:47:37.195Z,9.80
2018-08-09T06:50:06.991Z,9.17
2018-08-09T06:52:35.375Z,11.30
2018-08-09T06:55:04.295Z,9.37
2018-08-09T06:57:32.768Z,11.00
2018-08-09T07:00:01.223Z,10.60
2018-08-09T07:02:29.728Z,10.00
2018-08-09T07:04:58.238Z,10.00
2018-08-09T07:07:26.717Z,10.30
2018-08-09T07:09:55.368Z,11.30
2018-08-09T07:12:23.791Z,10.87
2018-08-09T07:14:52.312Z,9.50
2018-08-09T07:17:21.014Z,9.40
2018-08-09T07:19:49.475Z,10.03
2018-08-09T07:22:17.868Z,9.13
2018-08-09T07:24:46.328Z,10.10
2018-08-09T07:27:14.763Z,10.30
2018-08-09T07:29:43.255Z,9.67
2018-08-09T07:32:11.760Z,10.77
2018-08-09T07:34:40.279Z,10.10
2018-08-09T07:37:08.851Z,8.93
2018-08-09T07:39:37.706Z,10.50
2018-08-09T07:42:06.276Z,10.10
2018-08-09T07:44:34.747Z,10.70
2018-08-09T07:47:03.275Z,10.37
2018-08-09T07:49:31.704Z,10.27
2018-08-09T07:52:00.255Z,9.13
2018-08-09T07:54:29.187Z,10.00
2018-08-09T07:56:57.816Z,10.70
2018-08-09T07:59:26.287Z,9.93
2018-08-09T08:01:54.795Z,8.50
2018-08-09T08:04:23.191Z,8.40
2018-08-09T08:06:51.710Z,9.10
2018-08-09T08:09:20.136Z,9.17
2018-08-09T08:11:48.514Z,8.03
2018-08-09T08:14:16.967Z,9.17
2018-08-09T08:16:45.663Z,7.90
2018-08-09T08:19:14.175Z,8.20
2018-08-09T08:21:42.631Z,8.57
2018-08-09T08:24:11.415Z,7.37
2018-08-09T08:26:39.859Z,8.97
2018-08-09T08:29:08.258Z,7.67
2018-08-09T08:31:42.450Z,7.90
2018-08-09T08:34:10.867Z,6.93
2018-08-09T08:36:39.331Z,7.67
2018-08-09T08:39:09.609Z,7.73
2018-08-09T08:41:38.631Z,7.20
2018-08-09T08:44:07.328Z,7.63
2018-08-09T08:46:35.799Z,8.20
2018-08-09T08:49:04.235Z,7.93
2018-08-09T08:51:32.759Z,7.53
2018-08-09T08:54:01.184Z,8.20
2018-08-09T08:56:29.684Z,7.87
2018-08-09T08:58:58.168Z,6.57
2018-08-09T09:01:26.830Z,8.20
2018-08-09T09:03:55.303Z,6.67
2018-08-09T09:06:23.735Z,7.60
2018-08-09T09:08:52.429Z,8.10
2018-08-09T09:11:20.860Z,7.50
2018-08-09T09:13:50.539Z,7.70
2018-08-09T09:16:19.007Z,7.57
2018-08-09T09:18:47.419Z,7.47
2018-08-09T09:21:15.979Z,7.40
2018-08-09T09:23:44.543Z,6.83
2018-08-09T09:26:13.028Z,7.40
2018-08-09T09:28:41.536Z,8.90
2018-08-09T09:31:10.162Z,7.60
2018-08-09T09:33:38.574Z,7.00
2018-08-09T09:36:07.134Z,7.80
2018-08-09T09:38:35.715Z,7.10
2018-08-09T09:41:05.518Z,7.27
2018-08-09T09:43:34.759Z,7.27
2018-08-09T09:46:03.251Z,7.37
2018-08-09T09:48:31.736Z,8.10
2018-08-09T09:51:00.610Z,6.87
2018-08-09T09:53:29.004Z,6.63
2018-08-09T09:55:57.557Z,7.60
2018-08-09T09:58:26.074Z,6.40
2018-08-09T10:00:59.775Z,8.13
2018-08-09T10:03:28.216Z,7.43
2018-08-09T10:05:56.587Z,7.63
2018-08-09T10:08:25.111Z,7.33
2018-08-09T10:10:53.615Z,7.60
2018-08-09T10:13:22.079Z,7.10
2018-08-09T10:15:50.491Z,6.80
2018-08-09T10:18:19.180Z,7.60
2018-08-09T10:20:47.684Z,7.37
2018-08-09T10:23:16.151Z,6.80
2018-08-09T10:25:44.655Z,8.33
2018-08-09T10:28:13.054Z,7.40
2018-08-09T10:30:41.490Z,7.20
2018-08-09T10:33:10.026Z,7.13
2018-08-09T10:35:38.552Z,8.07
2018-08-09T10:38:07.041Z,7.83
2018-08-09T10:40:35.593Z,6.90
2018-08-09T10:43:04.122Z,8.70
2018-08-09T10:45:32.595Z,7.77
2018-08-09T10:48:01.171Z,7.60
2018-08-09T10:50:29.601Z,7.90
2018-08-09T10:52:57.982Z,7.40
2018-08-09T10:55:26.395Z,6.67
2018-08-09T10:57:54.867Z,7.97
2018-08-09T11:00:23.503Z,8.07
2018-08-09T11:02:52.051Z,8.70
2018-08-09T11:05:20.504Z,7.63
2018-08-09T11:07:48.907Z,7.73
2018-08-09T11:10:17.739Z,7.93
2018-08-09T11:12:46.107Z,8.37
2018-08-09T11:15:14.566Z,8.23
2018-08-09T11:17:43.235Z,8.67
2018-08-09T11:20:11.971Z,8.07
2018-08-09T11:22:40.376Z,7.80
2018-08-09T11:25:09.703Z,7.50
2018-08-09T11:27:38.263Z,8.03
2018-08-09T11:30:06.868Z,6.77
2018-08-09T11:32:36.215Z,7.50
2018-08-09T11:35:05.177Z,6.43
2018-08-09T11:37:33.811Z,7.33
2018-08-09T11:40:02.527Z,6.67
2018-08-09T11:42:31.386Z,6.80
2018-08-09T11:44:59.868Z,6.50
2018-08-09T11:47:29.248Z,6.93
2018-08-09T11:49:57.787Z,7.33
2018-08-09T11:52:26.271Z,7.00
2018-08-09T11:54:54.976Z,7.87
2018-08-09T11:57:23.426Z,7.37
2018-08-09T11:59:52.075Z,7.43
2018-08-09T12:02:20.587Z,7.80
2018-08-09T12:04:49.171Z,6.77
2018-08-09T12:07:17.622Z,6.97
2018-08-09T12:09:46.308Z,7.63
2018-08-09T12:12:14.855Z,8.03
2018-08-09T12:14:43.434Z,7.63
2018-08-09T12:17:12.033Z,7.47
2018-08-09T12:19:40.524Z,6.73
2018-08-09T12:22:08.919Z,6.63
2018-08-09T12:24:37.375Z,6.83
2018-08-09T12:27:05.959Z,5.63
2018-08-09T12:29:34.375Z,6.03
2018-08-09T12:32:02.904Z,9.50
2018-08-09T12:34:31.384Z,7.90
2018-08-09T12:37:00.324Z,20.20
2018-08-09T12:39:29.028Z,7.27
2018-08-09T12:41:57.703Z,4.50
2018-08-09T12:44:26.375Z,2.07
2018-08-09T12:46:54.880Z,2.30
2018-08-09T12:49:23.371Z,3.43
2018-08-09T12:51:51.996Z,2.77
2018-08-09T12:54:20.487Z,3.60
2018-08-09T12:56:48.950Z,3.77
2018-08-09T12:59:21.403Z,4.13
2018-08-09T13:01:49.928Z,4.13
2018-08-09T13:04:18.410Z,5.07
2018-08-09T13:06:46.863Z,4.67
2018-08-09T13:09:15.290Z,4.57
2018-08-09T13:11:43.847Z,4.90
2018-08-09T13:14:12.639Z,4.43
2018-08-09T13:16:41.035Z,3.70
2018-08-09T13:19:09.606Z,4.33
2018-08-09T13:21:38.374Z,4.33
2018-08-09T13:24:06.808Z,5.67
2018-08-09T13:26:35.427Z,5.00
2018-08-09T13:29:04.667Z,4.43
2018-08-09T13:31:33.154Z,5.20
2018-08-09T13:34:02.019Z,4.60
2018-08-09T13:36:30.848Z,5.20
2018-08-09T13:38:59.410Z,5.00
2018-08-09T13:41:27.975Z,5.83
2018-08-09T13:43:56.851Z,5.73
2018-08-09T13:46:25.462Z,5.93
2018-08-09T13:48:54.027Z,5.37
2018-08-09T13:51:22.806Z,5.40
2018-08-09T13:53:51.403Z,5.67
2018-08-09T13:56:19.895Z,4.93
2018-08-09T13:58:49.331Z,5.83
2018-08-09T14:01:17.787Z,5.70
2018-08-09T14:03:46.259Z,5.27
2018-08-09T14:06:14.842Z,4.77
2018-08-09T14:08:44.125Z,5.20
2018-08-09T14:11:14.335Z,4.97
2018-08-09T14:13:44.916Z,4.80
2018-08-09T14:16:13.961Z,4.60
2018-08-09T14:18:42.547Z,4.80
2018-08-09T14:21:11.086Z,4.97
2018-08-09T14:23:40.483Z,4.67
2018-08-09T14:26:08.998Z,4.77
2018-08-09T14:28:37.692Z,4.90
2018-08-09T14:31:06.229Z,3.93
2018-08-09T14:33:34.973Z,4.43
2018-08-09T14:36:03.595Z,3.73
2018-08-09T14:38:32.133Z,4.30
2018-08-09T14:41:00.736Z,3.87
2018-08-09T14:43:29.251Z,3.83
2018-08-09T14:45:57.675Z,2.60
2018-08-09T14:48:26.162Z,3.30
2018-08-09T14:50:54.616Z,2.80
2018-08-09T14:53:23.309Z,2.90
2018-08-09T14:55:51.783Z,3.30
2018-08-09T14:58:20.218Z,3.00
2018-08-09T15:00:48.663Z,3.20
2018-08-09T15:03:17.219Z,3.10
2018-08-09T15:05:45.804Z,2.80
2018-08-09T15:08:14.439Z,2.20
2018-08-09T15:10:42.845Z,2.17
2018-08-09T15:13:11.363Z,2.73
2018-08-09T15:15:40.083Z,2.50
2018-08-09T15:18:08.483Z,2.43
2018-08-09T15:20:36.951Z,2.00
2018-08-09T15:23:05.628Z,2.23
2018-08-09T15:25:34.163Z,3.30
2018-08-09T15:28:02.895Z,3.40
2018-08-09T15:30:31.376Z,2.20
2018-08-09T15:32:59.831Z,2.80
2018-08-09T15:35:28.323Z,2.97
2018-08-09T15:37:57.149Z,2.97
2018-08-09T15:40:25.587Z,2.80
2018-08-09T15:42:54.134Z,2.40
2018-08-09T15:45:22.776Z,2.53
2018-08-09T15:47:51.319Z,3.20
2018-08-09T15:50:20.547Z,3.60
2018-08-09T15:52:49.070Z,3.13
2018-08-09T15:55:18.535Z,2.60
2018-08-09T15:57:47.235Z,2.70
2018-08-09T16:00:20.015Z,2.77
2018-08-09T16:02:48.639Z,3.27
2018-08-09T16:05:17.293Z,2.40
2018-08-09T16:07:46.495Z,2.80
2018-08-09T16:10:16.092Z,1.67
2018-08-09T16:12:44.877Z,2.37
2018-08-09T16:15:18.780Z,1.60
2018-08-09T16:17:48.184Z,2.53
2018-08-09T16:20:16.936Z,2.23
2018-08-09T16:22:46.144Z,2.23
2018-08-09T16:25:15.916Z,2.10
2018-08-09T16:27:44.483Z,2.40
2018-08-09T16:30:17.213Z,2.10
2018-08-09T16:32:45.735Z,2.30
2018-08-09T16:35:14.495Z,3.00
2018-08-09T16:37:44.051Z,2.30
2018-08-09T16:40:16.181Z,1.83
2018-08-09T16:42:44.855Z,2.60
2018-08-09T16:46:16.926Z,2.30
2018-08-09T16:48:46.097Z,2.77
2018-08-09T16:51:14.737Z,2.03
2018-08-09T16:53:43.210Z,2.97
2018-08-09T16:56:12.131Z,2.30
2018-08-09T16:58:40.634Z,2.63
2018-08-09T17:01:09.219Z,2.40
2018-08-09T17:03:37.814Z,2.60
2018-08-09T17:06:06.718Z,1.60
2018-08-09T17:08:35.277Z,2.07
2018-08-09T17:11:03.944Z,1.60
2018-08-09T17:13:32.446Z,1.40
2018-08-09T17:16:01.056Z,1.80
2018-08-09T17:18:29.748Z,1.50
2018-08-09T17:20:58.317Z,1.50
2018-08-09T17:23:27.110Z,1.73
2018-08-09T17:25:55.829Z,1.80
2018-08-09T17:28:24.351Z,1.33
2018-08-09T17:30:53.231Z,2.30
2018-08-09T17:33:22.307Z,1.40
2018-08-09T17:35:51.015Z,0.90
2018-08-09T17:38:19.603Z,0.87
2018-08-09T17:40:48.260Z,0.93
2018-08-09T17:43:16.937Z,1.93
2018-08-09T17:45:45.516Z,1.10
2018-08-09T17:48:14.042Z,1.73
2018-08-09T17:50:42.812Z,1.53
2018-08-09T17:53:11.363Z,1.67
2018-08-09T17:55:39.895Z,1.23
2018-08-09T17:58:08.570Z,1.27
2018-08-09T18:00:37.286Z,1.13
2018-08-09T18:03:06.160Z,1.03
2018-08-09T18:05:34.823Z,1.03
2018-08-09T18:08:03.509Z,1.07
2018-08-09T18:10:33.748Z,1.03
2018-08-09T18:13:03.362Z,0.80
2018-08-09T18:15:32.342Z,1.63
2018-08-09T18:18:01.803Z,1.20
2018-08-09T18:20:33.498Z,1.27
2018-08-09T18:23:02.426Z,1.00
2018-08-09T18:25:31.310Z,1.07
2018-08-09T18:28:01.208Z,1.43
2018-08-09T18:30:30.090Z,1.10
2018-08-09T18:32:59.038Z,1.50
2018-08-09T18:35:28.969Z,1.37
2018-08-09T18:37:58.102Z,1.73
2018-08-09T18:40:27.998Z,1.10
2018-08-09T18:42:57.223Z,1.23
2018-08-09T18:45:32.887Z,1.30
2018-08-09T18:48:03.745Z,1.10
2018-08-09T18:50:33.177Z,1.00
2018-08-09T18:53:02.339Z,0.97
2018-08-09T18:55:31.259Z,1.50
2018-08-09T18:58:01.439Z,1.10
2018-08-09T19:00:31.045Z,1.27
2018-08-09T19:03:01.812Z,1.37
2018-08-09T19:05:31.765Z,1.53
2018-08-09T19:08:01.356Z,1.50
2018-08-09T19:10:31.616Z,1.73
2018-08-09T19:13:00.836Z,1.70
2018-08-09T19:15:29.939Z,1.70
2018-08-09T19:17:59.314Z,1.50
2018-08-09T19:20:31.698Z,1.10
2018-08-09T19:23:01.214Z,1.00
2018-08-09T19:25:31.504Z,1.20
2018-08-09T19:28:00.498Z,1.33
2018-08-09T19:30:31.118Z,1.00
2018-08-09T19:33:02.694Z,0.80
2018-08-09T19:35:32.409Z,1.30
2018-08-09T19:38:01.417Z,1.30
2018-08-09T19:40:31.060Z,0.97
2018-08-09T19:43:00.353Z,0.87
2018-08-09T19:45:29.602Z,0.77
2018-08-09T19:47:58.622Z,1.03
2018-08-09T19:50:27.940Z,1.00
2018-08-09T19:52:56.960Z,0.93
2018-08-09T19:55:27.226Z,0.93
2018-08-09T19:57:57.354Z,0.83
2018-08-09T20:00:29.346Z,0.87
2018-08-09T20:02:58.452Z,0.90
2018-08-09T20:05:28.050Z,1.00
2018-08-09T20:07:58.354Z,0.67
2018-08-09T20:10:27.825Z,0.70
2018-08-09T20:12:57.114Z,1.20
2018-08-09T20:15:26.555Z,0.83
2018-08-09T20:17:57.092Z,0.90
2018-08-09T20:20:26.778Z,0.90
2018-08-09T20:22:55.874Z,0.70
2018-08-09T20:25:40.118Z,1.00
2018-08-09T20:28:09.101Z,0.70
2018-08-09T20:30:38.164Z,0.77
2018-08-09T20:33:07.266Z,0.63
2018-08-09T20:35:36.521Z,0.80
2018-08-09T20:38:05.317Z,0.80
2018-08-09T20:40:34.014Z,0.97
2018-08-09T20:43:02.693Z,0.90
2018-08-09T20:45:31.487Z,0.83
2018-08-09T20:48:00.273Z,0.70
2018-08-09T20:50:29.308Z,0.60
2018-08-09T20:52:58.107Z,0.77
2018-08-09T20:55:26.757Z,0.90
2018-08-09T20:57:56.117Z,0.90
2018-08-09T21:00:28.245Z,0.90
2018-08-09T21:02:58.025Z,0.73
2018-08-09T21:05:30.344Z,0.80
2018-08-09T21:07:59.123Z,0.80
2018-08-09T21:10:27.870Z,0.60
2018-08-09T21:12:56.592Z,0.87
2018-08-09T21:15:25.187Z,0.70
2018-08-09T21:17:53.602Z,0.73
2018-08-09T21:20:22.436Z,0.70
2018-08-09T21:22:51.384Z,0.70
2018-08-09T21:25:20.235Z,0.60
2018-08-09T21:27:49.343Z,0.90
2018-08-09T21:30:20.074Z,0.93
2018-08-09T21:32:49.122Z,0.80
2018-08-09T21:35:17.659Z,0.80
2018-08-09T21:37:46.567Z,0.70
2018-08-09T21:40:15.727Z,0.70
2018-08-09T21:42:44.195Z,0.70
2018-08-09T21:45:15.604Z,0.80
2018-08-09T21:47:44.039Z,0.77
2018-08-09T21:50:16.031Z,1.10
2018-08-09T21:52:44.467Z,0.70
2018-08-09T21:55:13.399Z,0.80
2018-08-09T21:57:43.040Z,0.90
2018-08-09T22:00:50.104Z,0.60
2018-08-09T22:03:21.073Z,0.90
2018-08-09T22:05:54.801Z,0.87
2018-08-09T22:08:28.568Z,1.20
2018-08-09T22:11:02.931Z,0.90
2018-08-09T22:13:36.775Z,0.70
2018-08-09T22:16:11.171Z,0.50
2018-08-09T22:18:45.478Z,0.80
2018-08-09T22:21:19.306Z,0.80
2018-08-09T22:23:48.280Z,0.67
2018-08-09T22:26:16.853Z,0.70
2018-08-09T22:28:45.855Z,0.60
2018-08-09T22:31:15.048Z,0.50
2018-08-09T22:33:43.627Z,0.80
2018-08-09T22:36:12.118Z,0.50
2018-08-09T22:38:40.611Z,0.80
2018-08-09T22:41:09.054Z,0.50
2018-08-09T22:43:37.583Z,1.07
2018-08-09T22:46:06.359Z,0.67
2018-08-09T22:48:34.803Z,0.50
2018-08-09T22:51:03.309Z,0.50
2018-08-09T22:53:31.859Z,0.40
2018-08-09T22:56:00.303Z,0.60
2018-08-09T22:58:28.726Z,0.60
2018-08-09T23:00:57.473Z,0.50
2018-08-09T23:03:26.103Z,0.60
2018-08-09T23:05:54.555Z,0.40
2018-08-09T23:08:23.013Z,0.60
2018-08-09T23:10:51.575Z,0.40
2018-08-09T23:13:20.055Z,0.40
2018-08-09T23:15:48.703Z,0.40
2018-08-09T23:18:17.251Z,0.30
2018-08-09T23:20:45.751Z,0.30
2018-08-09T23:23:14.191Z,0.40
2018-08-09T23:25:42.700Z,0.30
2018-08-09T23:28:11.115Z,0.40
2018-08-09T23:30:39.956Z,0.50
2018-08-09T23:33:08.392Z,0.30
2018-08-09T23:35:36.939Z,0.40
2018-08-09T23:38:05.467Z,0.40
2018-08-09T23:40:33.931Z,0.40
2018-08-09T23:43:02.405Z,0.47
2018-08-09T23:45:30.935Z,0.30
2018-08-09T23:47:59.478Z,0.50
2018-08-09T23:50:27.878Z,0.30
2018-08-09T23:52:56.443Z,0.30
2018-08-09T23:55:24.999Z,0.40
2018-08-09T23:57:53.467Z,0.40
